Time;durP1;ratioP1;P1;durP2;ratioP2;P2;SDS_P1;SDS_P2;PMS_P1;PMS_P2;Temp;Humidity;BMP_temperature;BMP_pressure;BME280_temperature;BME280_humidity;BME280_pressure;Samples;Min_cycle;Max_cycle;Signal;HPM_P1;HPM_P2
2023/08/15 00:01:51;;;;;;;9.40;6.43;;;20.10;99.90;;;;;;5063848;28;20250;-77
2023/08/15 00:04:21;;;;;;;8.27;5.90;;;20.10;99.90;;;;;;5051412;28;20208;-77
2023/08/15 00:06:49;;;;;;;8.47;6.20;;;20.10;99.90;;;;;;5056606;28;20208;-76
2023/08/15 00:09:17;;;;;;;7.17;5.87;;;20.10;99.90;;;;;;5062272;28;20307;-77
2023/08/15 00:11:45;;;;;;;8.43;6.57;;;20.10;99.90;;;;;;5095279;28;20212;-77
2023/08/15 00:14:15;;;;;;;8.60;6.30;;;20.10;99.90;;;;;;5096883;28;20221;-79
2023/08/15 00:16:44;;;;;;;12.13;6.10;;;20.10;99.90;;;;;;5098881;28;20210;-76
2023/08/15 00:19:12;;;;;;;6.80;6.10;;;20.00;99.90;;;;;;5079149;28;20254;-76
2023/08/15 00:21:41;;;;;;;7.43;6.27;;;20.00;99.90;;;;;;5079108;28;20228;-78
2023/08/15 00:24:09;;;;;;;6.93;6.23;;;20.00;99.90;;;;;;5079154;28;20200;-77
2023/08/15 00:26:38;;;;;;;7.43;6.27;;;20.00;99.90;;;;;;5094065;28;20183;-79
2023/08/15 00:29:06;;;;;;;10.33;6.20;;;20.00;99.90;;;;;;5099397;28;20196;-75
2023/08/15 00:31:34;;;;;;;6.57;5.97;;;20.00;99.90;;;;;;5098937;28;20662;-77
2023/08/15 00:34:02;;;;;;;8.50;6.70;;;20.00;99.90;;;;;;5092890;28;20222;-77
2023/08/15 00:36:30;;;;;;;7.63;6.30;;;20.00;99.90;;;;;;5079402;28;20211;-77
2023/08/15 00:39:02;;;;;;;7.33;6.33;;;19.90;99.90;;;;;;5078915;28;20760;-76
2023/08/15 00:41:31;;;;;;;8.90;6.40;;;19.90;99.90;;;;;;5079153;28;20228;-77
2023/08/15 00:43:59;;;;;;;10.00;6.63;;;19.90;99.90;;;;;;5078978;28;20192;-76
2023/08/15 00:46:28;;;;;;;9.13;6.37;;;19.80;99.90;;;;;;5078998;28;20208;-77
2023/08/15 00:48:56;;;;;;;7.23;6.53;;;19.80;99.90;;;;;;5076586;28;20223;-75
2023/08/15 00:51:26;;;;;;;6.90;6.20;;;19.80;99.90;;;;;;5058368;28;20208;-81
2023/08/15 00:53:54;;;;;;;7.23;6.43;;;19.80;99.90;;;;;;5080872;28;20219;-74
2023/08/15 00:56:24;;;;;;;9.23;6.53;;;19.80;99.90;;;;;;5098160;28;20194;-76
2023/08/15 00:58:52;;;;;;;7.30;6.50;;;19.90;99.90;;;;;;5099233;28;20226;-75
2023/08/15 01:01:24;;;;;;;9.33;7.10;;;19.90;99.90;;;;;;5082354;28;20216;-77
2023/08/15 01:03:53;;;;;;;6.90;6.20;;;19.90;99.90;;;;;;5077570;28;20192;-77
2023/08/15 01:06:21;;;;;;;8.27;6.60;;;19.80;99.90;;;;;;5078474;28;20231;-78
2023/08/15 01:08:49;;;;;;;8.47;6.53;;;19.80;99.90;;;;;;5077934;28;20575;-76
2023/08/15 01:11:17;;;;;;;7.40;6.70;;;19.80;99.90;;;;;;5078589;28;20212;-79
2023/08/15 01:13:59;;;;;;;7.13;6.40;;;19.80;99.90;;;;;;5078343;28;20671;-77
2023/08/15 01:16:34;;;;;;;7.13;6.43;;;19.80;99.90;;;;;;5078540;28;20200;-76
2023/08/15 01:19:07;;;;;;;8.00;6.43;;;19.80;99.90;;;;;;5078196;28;20188;-78
2023/08/15 01:21:41;;;;;;;7.97;6.37;;;19.70;99.90;;;;;;5077741;28;20259;-74
2023/08/15 01:24:11;;;;;;;9.87;7.03;;;19.80;99.90;;;;;;5078153;28;20199;-77
2023/08/15 01:26:39;;;;;;;7.57;6.83;;;19.80;99.90;;;;;;5069362;28;20196;-73
2023/08/15 01:29:07;;;;;;;7.73;6.93;;;19.70;99.90;;;;;;5064045;28;20220;-76
2023/08/15 01:31:37;;;;;;;7.70;6.90;;;19.70;99.90;;;;;;5081312;28;20203;-76
2023/08/15 01:34:12;;;;;;;9.97;6.60;;;19.70;99.90;;;;;;5094485;28;20231;-77
2023/08/15 01:36:44;;;;;;;10.30;6.73;;;19.70;99.90;;;;;;5092593;28;20248;-77
2023/08/15 01:39:16;;;;;;;8.23;6.77;;;19.70;99.90;;;;;;5097875;28;20241;-76
2023/08/15 01:41:47;;;;;;;8.30;6.73;;;19.70;99.90;;;;;;5097328;28;20250;-78
2023/08/15 01:44:15;;;;;;;7.27;6.57;;;19.70;99.90;;;;;;5089311;28;20204;-76
2023/08/15 01:46:46;;;;;;;7.97;6.63;;;19.70;99.90;;;;;;5077703;28;20234;-75
2023/08/15 01:49:14;;;;;;;8.23;6.80;;;19.70;99.90;;;;;;5077910;28;20268;-77
2023/08/15 01:51:43;;;;;;;10.90;7.40;;;19.70;99.90;;;;;;5077785;28;20199;-78
2023/08/15 01:54:13;;;;;;;8.53;7.43;;;19.70;99.90;;;;;;5076786;28;20204;-78
2023/08/15 01:56:41;;;;;;;8.37;7.00;;;19.60;99.90;;;;;;5077166;28;20215;-77
2023/08/15 01:59:09;;;;;;;10.83;7.07;;;19.60;99.90;;;;;;5077127;28;20226;-78
2023/08/15 02:01:37;;;;;;;8.37;7.43;;;19.60;99.90;;;;;;5075534;28;20224;-77
2023/08/15 02:04:05;;;;;;;7.97;7.17;;;19.60;99.90;;;;;;5056825;28;20235;-76
2023/08/15 02:06:33;;;;;;;7.87;7.07;;;19.50;99.90;;;;;;5053888;28;20616;-78
2023/08/15 02:09:02;;;;;;;8.43;7.43;;;19.50;99.90;;;;;;5054219;28;20209;-76
2023/08/15 02:11:31;;;;;;;10.03;7.63;;;19.50;99.90;;;;;;5053805;28;20200;-78
2023/08/15 02:14:00;;;;;;;9.33;7.60;;;19.50;99.90;;;;;;5053273;28;20662;-78
2023/08/15 02:16:28;;;;;;;7.83;7.03;;;19.50;99.90;;;;;;5054540;28;20207;-77
2023/08/15 02:18:56;;;;;;;7.90;7.10;;;19.40;99.90;;;;;;5053594;28;20218;-77
2023/08/15 02:21:24;;;;;;;8.60;7.50;;;19.40;99.90;;;;;;5060113;28;20674;-75
2023/08/15 02:23:52;;;;;;;7.80;7.00;;;19.40;99.90;;;;;;5062574;28;20204;-76
2023/08/15 02:26:20;;;;;;;8.13;6.77;;;19.30;99.90;;;;;;5058651;28;20272;-78
2023/08/15 02:28:49;;;;;;;8.63;7.73;;;19.30;99.90;;;;;;5073741;28;20234;-78
2023/08/15 02:31:17;;;;;;;10.93;7.17;;;19.30;99.90;;;;;;5073270;28;20211;-78
2023/08/15 02:33:46;;;;;;;9.23;8.20;;;19.20;99.90;;;;;;5072040;28;20290;-76
2023/08/15 02:36:14;;;;;;;8.67;7.30;;;19.30;99.90;;;;;;5072603;28;20212;-78
2023/08/15 02:38:42;;;;;;;10.20;7.30;;;19.30;99.90;;;;;;5072783;28;20658;-78
2023/08/15 02:41:10;;;;;;;8.80;7.80;;;19.30;99.90;;;;;;5072268;28;20264;-77
2023/08/15 02:43:38;;;;;;;8.70;7.50;;;19.20;99.90;;;;;;5072718;28;20263;-78
2023/08/15 02:46:08;;;;;;;9.50;7.53;;;19.20;99.90;;;;;;5072478;28;20642;-77
2023/08/15 02:48:36;;;;;;;7.87;7.07;;;19.10;99.90;;;;;;5072878;28;20616;-78
2023/08/15 02:51:07;;;;;;;8.80;7.20;;;19.10;99.90;;;;;;5060237;28;20330;-77
2023/08/15 02:53:36;;;;;;;11.10;7.77;;;19.10;99.90;;;;;;5052419;28;20238;-78
2023/08/15 02:56:05;;;;;;;8.73;7.90;;;19.00;99.90;;;;;;5052673;28;20277;-79
2023/08/15 02:58:34;;;;;;;10.40;8.30;;;19.10;99.90;;;;;;5052523;28;20204;-77
2023/08/15 03:01:02;;;;;;;9.03;8.03;;;19.00;99.90;;;;;;5052349;28;20247;-77
2023/08/15 03:03:32;;;;;;;9.07;7.70;;;19.00;99.90;;;;;;5052030;28;20632;-77
2023/08/15 03:06:01;;;;;;;8.10;7.30;;;19.00;99.90;;;;;;5052182;28;20209;-77
2023/08/15 03:08:29;;;;;;;8.97;7.80;;;19.00;99.90;;;;;;5052735;28;20577;-78
2023/08/15 03:10:58;;;;;;;8.10;7.30;;;18.90;99.90;;;;;;5052256;28;20211;-78
2023/08/15 03:13:26;;;;;;;9.10;8.10;;;18.90;99.90;;;;;;5051680;28;20210;-78
2023/08/15 03:15:56;;;;;;;8.47;7.57;;;18.80;99.90;;;;;;5052133;28;20471;-77
2023/08/15 03:18:24;;;;;;;8.87;7.80;;;18.90;99.90;;;;;;5052127;28;20629;-78
2023/08/15 03:20:58;;;;;;;8.27;7.33;;;18.80;99.90;;;;;;5052467;28;20273;-77
2023/08/15 03:23:26;;;;;;;9.57;7.90;;;18.80;99.90;;;;;;5051715;28;20313;-78
2023/08/15 03:25:58;;;;;;;7.77;7.00;;;18.80;99.90;;;;;;5053521;28;20208;-78
2023/08/15 03:28:26;;;;;;;9.40;7.43;;;18.80;99.90;;;;;;5058350;28;20197;-78
2023/08/15 03:30:55;;;;;;;9.13;8.13;;;18.70;99.90;;;;;;5071571;28;20209;-75
2023/08/15 03:33:24;;;;;;;9.03;8.13;;;18.80;99.90;;;;;;5071730;28;20203;-77
2023/08/15 03:35:52;;;;;;;8.80;7.90;;;18.80;99.90;;;;;;5057049;28;20298;-78
2023/08/15 03:38:23;;;;;;;8.90;8.03;;;18.80;99.90;;;;;;5052037;28;20628;-77
2023/08/15 03:41:01;;;;;;;8.73;7.67;;;18.80;99.90;;;;;;5052487;28;20612;-77
2023/08/15 03:43:30;;;;;;;9.43;7.33;;;18.70;99.90;;;;;;5051305;28;20232;-78
2023/08/15 03:45:58;;;;;;;9.97;7.80;;;18.70;99.90;;;;;;5052036;28;20217;-80
2023/08/15 03:48:26;;;;;;;8.70;7.40;;;18.80;99.90;;;;;;5053479;28;20207;-77
2023/08/15 03:50:55;;;;;;;9.57;7.43;;;18.70;99.90;;;;;;5056297;28;20208;-78
2023/08/15 03:53:25;;;;;;;8.83;7.30;;;18.70;99.90;;;;;;5055796;28;20704;-77
2023/08/15 03:55:54;;;;;;;8.40;7.60;;;18.70;99.90;;;;;;5056115;28;20214;-79
2023/08/15 03:58:23;;;;;;;9.27;7.70;;;18.70;99.90;;;;;;5056246;28;20575;-79
2023/08/15 04:00:51;;;;;;;8.80;7.33;;;18.70;99.90;;;;;;5055863;28;20208;-76
2023/08/15 04:03:19;;;;;;;11.10;7.37;;;18.70;99.90;;;;;;5056502;28;20246;-74
2023/08/15 04:05:48;;;;;;;8.50;7.27;;;18.70;99.90;;;;;;5069803;28;20270;-74
2023/08/15 04:08:17;;;;;;;7.50;6.73;;;18.80;99.90;;;;;;5060466;28;20200;-73
2023/08/15 04:10:47;;;;;;;9.37;7.30;;;18.80;99.90;;;;;;5073523;28;20269;-74
2023/08/15 04:13:15;;;;;;;8.27;7.33;;;18.80;99.90;;;;;;5070112;28;20277;-75
2023/08/15 04:15:43;;;;;;;8.57;7.10;;;18.80;99.90;;;;;;5075039;28;20199;-74
2023/08/15 04:18:12;;;;;;;8.87;7.50;;;18.90;99.90;;;;;;5075060;28;20281;-74
2023/08/15 04:20:42;;;;;;;7.53;6.50;;;18.80;99.90;;;;;;5074442;28;20278;-74
2023/08/15 04:23:10;;;;;;;7.77;6.97;;;18.80;99.90;;;;;;5064664;28;20232;-74
2023/08/15 04:25:40;;;;;;;7.67;6.80;;;18.80;99.90;;;;;;5075546;28;20212;-75
2023/08/15 04:28:09;;;;;;;8.67;6.93;;;18.90;99.90;;;;;;5074331;28;20208;-75
2023/08/15 04:30:38;;;;;;;7.27;6.27;;;18.90;99.90;;;;;;5075394;28;20212;-76
2023/08/15 04:33:07;;;;;;;7.30;6.57;;;19.00;99.90;;;;;;5075047;28;20277;-75
2023/08/15 04:35:35;;;;;;;8.17;5.73;;;19.00;99.90;;;;;;5075203;28;20215;-73
2023/08/15 04:38:03;;;;;;;6.50;5.80;;;19.00;99.90;;;;;;5058692;28;20223;-74
2023/08/15 04:40:33;;;;;;;7.83;5.93;;;19.10;99.90;;;;;;5058042;28;20215;-75
2023/08/15 04:43:02;;;;;;;6.40;5.80;;;19.20;99.90;;;;;;5074437;28;20276;-74
2023/08/15 04:45:32;;;;;;;8.80;5.90;;;19.20;99.90;;;;;;5069789;28;20212;-75
2023/08/15 04:48:00;;;;;;;7.03;5.80;;;19.40;99.90;;;;;;5055364;28;20261;-74
2023/08/15 04:50:28;;;;;;;6.30;5.70;;;19.40;99.90;;;;;;5064484;28;20227;-77
2023/08/15 04:52:57;;;;;;;6.30;5.17;;;19.40;99.90;;;;;;5073185;28;20220;-74
2023/08/15 04:55:25;;;;;;;6.27;5.47;;;19.50;99.90;;;;;;5072061;28;20195;-74
2023/08/15 04:57:53;;;;;;;6.87;5.03;;;19.60;99.90;;;;;;5074188;28;20206;-75
2023/08/15 05:00:21;;;;;;;7.40;5.30;;;19.70;99.90;;;;;;5070276;28;20207;-74
2023/08/15 05:02:51;;;;;;;7.13;5.33;;;19.70;99.90;;;;;;5073315;28;20306;-74
2023/08/15 05:05:19;;;;;;;7.63;5.13;;;19.70;99.90;;;;;;5074617;28;20294;-73
2023/08/15 05:07:47;;;;;;;7.53;5.10;;;19.80;99.90;;;;;;5073555;28;20204;-74
2023/08/15 05:10:15;;;;;;;5.53;5.00;;;19.80;99.90;;;;;;5073617;28;20203;-74
2023/08/15 05:12:44;;;;;;;6.23;4.77;;;19.80;99.90;;;;;;5075548;28;20199;-74
2023/08/15 05:15:12;;;;;;;7.40;5.40;;;19.90;99.90;;;;;;5075827;28;20203;-74
2023/08/15 05:17:40;;;;;;;9.07;5.07;;;19.90;99.90;;;;;;5075934;28;20818;-75
2023/08/15 05:20:12;;;;;;;5.37;4.87;;;20.00;99.90;;;;;;5068977;28;20207;-74
2023/08/15 05:22:40;;;;;;;7.07;4.73;;;20.10;99.90;;;;;;5074168;28;20211;-75
2023/08/15 05:25:09;;;;;;;4.97;4.47;;;20.10;99.90;;;;;;5074280;28;20208;-75
2023/08/15 05:27:37;;;;;;;7.27;4.90;;;20.10;99.90;;;;;;5072725;28;20203;-74
2023/08/15 05:30:06;;;;;;;6.53;4.60;;;20.10;99.90;;;;;;5074358;28;20276;-74
2023/08/15 05:32:35;;;;;;;5.70;4.43;;;20.20;99.90;;;;;;5073256;28;20272;-74
2023/08/15 05:35:04;;;;;;;5.80;4.37;;;20.20;99.90;;;;;;5067219;28;20230;-73
2023/08/15 05:37:33;;;;;;;6.17;4.60;;;20.30;99.90;;;;;;5054324;28;20658;-76
2023/08/15 05:40:02;;;;;;;6.07;3.93;;;20.40;99.90;;;;;;5054361;28;20251;-74
2023/08/15 05:42:32;;;;;;;5.70;3.97;;;20.50;99.90;;;;;;5053911;28;20212;-75
2023/08/15 05:45:00;;;;;;;5.33;4.30;;;20.60;99.90;;;;;;5054316;28;20220;-73
2023/08/15 05:47:28;;;;;;;4.20;3.63;;;20.60;99.90;;;;;;5054261;28;20204;-73
2023/08/15 05:49:56;;;;;;;5.53;3.67;;;20.70;99.90;;;;;;5054359;28;20299;-74
2023/08/15 05:52:24;;;;;;;7.50;3.80;;;20.80;99.90;;;;;;5053928;28;20258;-75
2023/08/15 05:54:54;;;;;;;4.30;3.57;;;20.90;99.90;;;;;;5053860;28;20204;-75
2023/08/15 05:57:22;;;;;;;5.63;3.50;;;21.10;99.90;;;;;;5053984;28;20207;-74
2023/08/15 05:59:50;;;;;;;4.57;3.50;;;21.20;99.90;;;;;;5054158;28;20261;-74
2023/08/15 06:02:19;;;;;;;4.37;3.40;;;21.30;99.90;;;;;;5053479;28;20250;-74
2023/08/15 06:04:47;;;;;;;5.00;3.03;;;21.50;99.90;;;;;;5053624;28;20228;-74
2023/08/15 06:07:15;;;;;;;5.23;3.60;;;21.60;99.90;;;;;;5053626;28;20243;-74
2023/08/15 06:09:44;;;;;;;4.27;3.60;;;21.70;99.90;;;;;;5053129;28;20254;-75
2023/08/15 06:12:14;;;;;;;4.33;3.57;;;21.90;99.90;;;;;;5052578;28;20212;-75
2023/08/15 06:14:42;;;;;;;5.70;3.50;;;22.10;99.90;;;;;;5052946;28;20212;-74
2023/08/15 06:17:12;;;;;;;4.07;2.90;;;22.30;99.90;;;;;;5053359;28;20231;-74
2023/08/15 06:19:40;;;;;;;6.17;3.40;;;22.60;99.90;;;;;;5053391;28;20295;-75
2023/08/15 06:22:08;;;;;;;3.63;3.00;;;22.90;99.90;;;;;;5070305;28;20218;-73
2023/08/15 06:24:36;;;;;;;6.83;3.07;;;23.20;99.90;;;;;;5073004;28;20219;-75
2023/08/15 06:27:05;;;;;;;3.30;2.70;;;23.50;99.90;;;;;;5072978;28;20211;-75
2023/08/15 06:29:34;;;;;;;3.30;2.70;;;23.70;99.90;;;;;;5064449;28;20254;-76
2023/08/15 06:32:03;;;;;;;2.63;2.43;;;23.90;99.90;;;;;;5052773;28;20242;-74
2023/08/15 06:34:31;;;;;;;4.47;2.90;;;24.20;99.90;;;;;;5053124;28;20208;-73
2023/08/15 06:36:59;;;;;;;2.83;2.50;;;24.30;99.90;;;;;;5053006;28;20282;-73
2023/08/15 06:39:27;;;;;;;4.57;2.70;;;24.40;99.90;;;;;;5053071;28;20204;-73
2023/08/15 06:41:56;;;;;;;2.87;2.50;;;24.60;99.90;;;;;;5053084;28;20215;-73
2023/08/15 06:44:24;;;;;;;3.67;2.50;;;24.80;99.90;;;;;;5052608;28;20228;-74
2023/08/15 06:46:55;;;;;;;3.97;2.70;;;25.00;99.90;;;;;;5052526;28;20201;-75
2023/08/15 06:49:24;;;;;;;3.33;2.37;;;25.30;99.90;;;;;;5052503;28;20254;-75
2023/08/15 06:51:52;;;;;;;5.03;2.60;;;25.60;99.90;;;;;;5052510;28;20204;-73
2023/08/15 06:54:20;;;;;;;4.33;2.77;;;25.70;99.90;;;;;;5052826;28;20208;-74
2023/08/15 06:56:48;;;;;;;3.00;2.47;;;26.00;99.90;;;;;;5052807;28;20205;-74
2023/08/15 06:59:17;;;;;;;4.53;2.53;;;26.50;99.90;;;;;;5052620;28;20273;-74
2023/08/15 07:01:46;;;;;;;2.87;2.57;;;26.90;99.90;;;;;;5052531;28;20262;-76
2023/08/15 07:04:17;;;;;;;2.53;2.30;;;27.10;99.90;;;;;;5052403;28;20255;-76
2023/08/15 07:06:46;;;;;;;2.70;2.50;;;27.20;99.90;;;;;;5052259;28;20487;-74
2023/08/15 07:09:14;;;;;;;4.20;2.70;;;27.10;99.90;;;;;;5052447;28;20263;-74
2023/08/15 07:11:42;;;;;;;5.07;3.07;;;27.10;99.90;;;;;;5052684;28;20736;-75
2023/08/15 07:14:10;;;;;;;5.07;2.70;;;26.90;99.90;;;;;;5051800;28;20257;-75
2023/08/15 07:16:38;;;;;;;5.27;2.90;;;27.10;99.90;;;;;;5052236;28;20212;-75
2023/08/15 07:19:06;;;;;;;3.97;2.47;;;27.30;99.90;;;;;;5056309;28;20212;-74
2023/08/15 07:21:36;;;;;;;3.33;2.87;;;27.80;99.90;;;;;;5072440;28;20211;-75
2023/08/15 07:24:05;;;;;;;3.67;2.70;;;28.20;99.90;;;;;;5052181;28;20228;-77
2023/08/15 07:26:34;;;;;;;2.83;2.63;;;28.30;99.90;;;;;;5052141;28;20212;-75
2023/08/15 07:29:04;;;;;;;5.05;2.83;;;28.70;99.90;;;;;;5051941;28;20774;-76
2023/08/15 07:31:32;;;;;;;3.78;3.13;;;29.20;98.10;;;;;;5052184;28;20576;-74
2023/08/15 07:34:02;;;;;;;4.20;2.90;;;29.80;97.00;;;;;;5051976;28;20211;-74
2023/08/15 07:36:30;;;;;;;4.75;2.67;;;30.30;95.80;;;;;;5051806;28;20686;-75
2023/08/15 07:39:00;;;;;;;6.80;2.70;;;31.30;93.70;;;;;;5051899;28;20219;-75
2023/08/15 07:41:28;;;;;;;4.55;2.58;;;31.80;92.10;;;;;;5052190;28;20266;-77
2023/08/15 07:43:56;;;;;;;4.40;2.90;;;32.90;86.70;;;;;;5051574;28;20257;-76
2023/08/15 07:46:24;;;;;;;5.15;2.90;;;33.00;83.70;;;;;;5051630;28;20212;-76
2023/08/15 07:48:53;;;;;;;5.95;2.88;;;33.60;81.30;;;;;;5051799;28;20420;-76
2023/08/15 07:51:22;;;;;;;4.40;2.80;;;33.70;78.10;;;;;;5052065;28;20208;-75
2023/08/15 07:53:50;;;;;;;5.95;2.75;;;33.90;76.10;;;;;;5051668;28;20207;-76
2023/08/15 07:56:19;;;;;;;5.13;2.83;;;34.90;72.70;;;;;;5051588;28;20289;-76
2023/08/15 07:58:47;;;;;;;4.88;2.83;;;35.30;72.30;;;;;;5051384;28;20219;-75
2023/08/15 08:01:15;;;;;;;6.50;3.05;;;35.10;68.00;;;;;;5062531;28;20211;-75
2023/08/15 08:03:44;;;;;;;4.10;3.00;;;35.40;69.00;;;;;;5070968;28;20250;-75
2023/08/15 08:06:12;;;;;;;4.38;3.03;;;35.90;64.50;;;;;;5068984;28;20230;-74
2023/08/15 08:09:00;;;;;;;4.70;3.00;;;35.60;64.40;;;;;;5070794;28;20203;-74
2023/08/15 08:11:29;;;;;;;4.30;3.00;;;35.60;65.70;;;;;;5071070;28;20249;-75
2023/08/15 08:13:58;;;;;;;5.53;3.10;;;35.40;65.10;;;;;;5056874;28;20266;-76
2023/08/15 08:16:26;;;;;;;5.43;3.25;;;35.60;64.30;;;;;;5051840;28;20227;-76
2023/08/15 08:18:54;;;;;;;4.53;3.47;;;35.90;63.60;;;;;;5065420;28;20212;-77
2023/08/15 08:21:22;;;;;;;3.75;3.35;;;36.00;61.80;;;;;;5058792;28;20654;-75
2023/08/15 08:23:50;;;;;;;4.43;3.03;;;36.30;59.90;;;;;;5050957;28;20732;-76
2023/08/15 08:26:19;;;;;;;4.25;3.25;;;36.30;61.00;;;;;;5051590;28;20713;-75
2023/08/15 08:28:48;;;;;;;5.28;3.50;;;37.00;60.70;;;;;;5051258;28;20246;-74
2023/08/15 08:31:16;;;;;;;5.88;3.28;;;37.20;57.90;;;;;;5051125;28;20216;-76
2023/08/15 08:33:45;;;;;;;5.28;3.30;;;37.00;58.10;;;;;;5050930;28;20214;-75
2023/08/15 08:36:14;;;;;;;5.15;3.15;;;37.80;56.20;;;;;;5054437;28;20255;-75
2023/08/15 08:38:42;;;;;;;5.55;3.30;;;37.20;56.40;;;;;;5074666;28;20200;-75
2023/08/15 08:41:11;;;;;;;4.95;3.50;;;37.00;58.20;;;;;;5074074;28;20200;-76
2023/08/15 08:43:40;;;;;;;4.30;3.47;;;36.80;58.00;;;;;;5072999;28;20226;-75
2023/08/15 08:46:10;;;;;;;4.05;3.25;;;36.50;56.80;;;;;;5068521;28;20227;-74
2023/08/15 08:48:39;;;;;;;4.72;3.30;;;36.70;56.90;;;;;;5073624;28;20219;-75
2023/08/15 08:51:08;;;;;;;7.75;3.40;;;37.00;55.80;;;;;;5073876;28;20218;-75
2023/08/15 08:53:37;;;;;;;3.58;3.10;;;37.00;56.10;;;;;;5056782;28;20212;-74
2023/08/15 08:56:06;;;;;;;6.53;3.78;;;37.00;56.50;;;;;;5054952;28;20283;-76
2023/08/15 08:58:39;;;;;;;4.28;3.35;;;37.30;56.20;;;;;;5054816;28;20216;-74
2023/08/15 09:01:09;;;;;;;9.23;4.00;;;37.30;57.50;;;;;;5054677;28;20591;-74
2023/08/15 09:03:39;;;;;;;4.65;3.00;;;37.40;55.10;;;;;;5054576;28;20242;-75
2023/08/15 09:06:07;;;;;;;7.07;3.58;;;37.20;57.10;;;;;;5054651;28;20254;-75
2023/08/15 09:08:36;;;;;;;3.70;3.17;;;37.70;55.60;;;;;;5054355;28;20658;-76
2023/08/15 09:11:04;;;;;;;5.80;3.60;;;37.50;56.30;;;;;;5072217;28;20231;-76
2023/08/15 09:13:32;;;;;;;5.85;3.40;;;37.70;55.20;;;;;;5074300;28;20272;-74
2023/08/15 09:16:04;;;;;;;6.43;3.80;;;38.10;54.70;;;;;;5074251;28;20207;-75
2023/08/15 09:18:35;;;;;;;5.70;3.97;;;37.60;53.80;;;;;;5067134;28;20231;-77
2023/08/15 09:21:05;;;;;;;11.13;3.92;;;37.30;54.40;;;;;;5054416;28;20208;-78
2023/08/15 09:23:34;;;;;;;3.90;3.50;;;37.10;54.80;;;;;;5054308;28;20212;-75
2023/08/15 09:26:12;;;;;;;3.75;3.35;;;37.10;55.30;;;;;;5054109;28;20228;-75
2023/08/15 09:28:41;;;;;;;8.65;3.70;;;37.50;55.10;;;;;;5054119;28;20192;-75
2023/08/15 09:31:10;;;;;;;7.65;3.90;;;37.70;54.60;;;;;;5054100;28;20222;-75
2023/08/15 09:33:40;;;;;;;6.18;3.95;;;37.60;54.60;;;;;;5053139;28;20239;-75
2023/08/15 09:36:10;;;;;;;6.47;4.30;;;37.50;55.70;;;;;;5052348;28;20235;-74
2023/08/15 09:38:39;;;;;;;8.63;4.20;;;37.10;55.00;;;;;;5053151;28;20231;-73
2023/08/15 09:41:10;;;;;;;4.70;4.30;;;37.00;55.40;;;;;;5052964;28;20219;-74
2023/08/15 09:43:50;;;;;;;5.85;3.70;;;36.50;54.60;;;;;;5053224;28;20208;-76
2023/08/15 09:46:19;;;;;;;7.53;3.97;;;37.60;56.40;;;;;;5053505;28;20235;-73
2023/08/15 09:48:51;;;;;;;6.03;4.03;;;37.30;55.90;;;;;;5053612;28;20218;-74
2023/08/15 09:51:19;;;;;;;5.38;4.10;;;37.60;54.30;;;;;;5053171;28;20208;-73
2023/08/15 09:53:48;;;;;;;6.00;4.00;;;36.80;55.60;;;;;;5053302;28;20550;-74
2023/08/15 09:56:17;;;;;;;4.13;3.72;;;36.60;55.70;;;;;;5053556;28;20208;-74
2023/08/15 09:58:46;;;;;;;6.28;3.90;;;36.80;57.10;;;;;;5064240;28;20208;-73
2023/08/15 10:01:15;;;;;;;4.72;4.03;;;36.70;57.00;;;;;;5073580;28;20261;-74
2023/08/15 10:03:45;;;;;;;4.22;3.83;;;37.20;56.10;;;;;;5073177;28;20299;-73
2023/08/15 10:06:15;;;;;;;6.93;4.20;;;36.10;58.50;;;;;;5073162;28;20697;-74
2023/08/15 10:08:44;;;;;;;7.68;4.25;;;36.00;58.30;;;;;;5058160;28;20240;-72
2023/08/15 10:11:13;;;;;;;9.02;3.97;;;36.10;58.80;;;;;;5053634;28;20254;-74
2023/08/15 10:13:42;;;;;;;5.93;4.20;;;35.80;59.70;;;;;;5053576;28;20223;-74
2023/08/15 10:16:13;;;;;;;5.88;4.22;;;35.70;60.90;;;;;;5068641;28;20276;-73
2023/08/15 10:18:52;;;;;;;4.40;4.00;;;35.50;61.80;;;;;;5057844;28;20310;-77
2023/08/15 10:21:23;;;;;;;5.97;4.30;;;36.10;59.30;;;;;;5057542;28;20208;-74
2023/08/15 10:23:54;;;;;;;4.88;4.18;;;36.30;59.00;;;;;;5055600;28;20231;-75
2023/08/15 10:26:23;;;;;;;4.90;4.40;;;36.10;61.20;;;;;;5054811;28;20228;-74
2023/08/15 10:28:52;;;;;;;4.88;4.00;;;36.80;60.40;;;;;;5053690;28;20212;-74
2023/08/15 10:31:35;;;;;;;4.85;3.92;;;37.10;57.70;;;;;;5052824;28;20224;-73
2023/08/15 10:34:04;;;;;;;6.47;4.10;;;37.70;58.70;;;;;;5052980;28;20218;-72
2023/08/15 10:36:33;;;;;;;4.78;4.30;;;37.90;56.30;;;;;;5069534;28;20570;-74
2023/08/15 10:39:06;;;;;;;6.82;3.85;;;37.60;56.50;;;;;;5072745;28;20215;-77
2023/08/15 10:41:36;;;;;;;5.70;4.00;;;37.60;59.10;;;;;;5073126;28;20214;-76
2023/08/15 10:44:06;;;;;;;5.28;4.53;;;38.80;57.10;;;;;;5059386;28;20212;-76
2023/08/15 10:46:36;;;;;;;4.65;3.92;;;38.90;54.10;;;;;;5052796;28;20231;-76
2023/08/15 10:49:08;;;;;;;4.40;4.00;;;38.20;55.00;;;;;;5052876;28;20212;-77
2023/08/15 10:51:39;;;;;;;7.03;4.20;;;38.70;55.60;;;;;;5052469;28;20262;-75
2023/08/15 10:54:09;;;;;;;5.25;3.88;;;38.80;55.60;;;;;;5052218;28;20208;-74
2023/08/15 10:56:38;;;;;;;6.75;4.05;;;39.20;54.10;;;;;;5052679;28;20712;-75
2023/08/15 10:59:08;;;;;;;4.25;3.65;;;38.10;55.10;;;;;;5051695;28;20216;-75
2023/08/15 11:01:38;;;;;;;6.63;4.00;;;38.20;56.20;;;;;;5052652;28;20207;-75
2023/08/15 11:04:09;;;;;;;5.70;4.00;;;38.50;56.70;;;;;;5052341;28;20223;-75
2023/08/15 11:06:46;;;;;;;6.13;4.05;;;38.50;55.00;;;;;;5052483;28;20575;-73
2023/08/15 11:09:15;;;;;;;5.63;4.55;;;37.90;57.60;;;;;;5052002;28;20204;-75
2023/08/15 11:11:44;;;;;;;6.63;4.30;;;35.70;58.20;;;;;;5052472;28;20247;-77
2023/08/15 11:14:17;;;;;;;5.80;4.35;;;36.10;60.30;;;;;;5061581;28;20207;-74
2023/08/15 11:16:45;;;;;;;7.32;3.78;;;35.80;59.40;;;;;;5062709;28;20283;-76
2023/08/15 11:19:15;;;;;;;6.07;4.18;;;36.20;64.80;;;;;;5052314;28;20300;-74
2023/08/15 11:21:45;;;;;;;5.68;3.92;;;36.30;60.20;;;;;;5052011;28;20655;-74
2023/08/15 11:24:13;;;;;;;5.03;3.67;;;36.20;59.50;;;;;;5052040;28;20208;-76
2023/08/15 11:26:42;;;;;;;6.18;4.35;;;35.80;62.00;;;;;;5052368;28;20228;-75
2023/08/15 11:29:12;;;;;;;8.45;4.18;;;35.40;64.40;;;;;;5052097;28;20204;-77
2023/08/15 11:31:41;;;;;;;5.45;4.13;;;35.00;64.30;;;;;;5051836;28;20215;-76
2023/08/15 11:34:11;;;;;;;6.75;4.50;;;34.50;68.10;;;;;;5051776;28;20296;-73
2023/08/15 11:36:40;;;;;;;5.38;4.40;;;34.30;71.30;;;;;;5051876;28;20299;-76
2023/08/15 11:39:13;;;;;;;4.53;4.13;;;33.90;73.40;;;;;;5051602;28;20242;-76
2023/08/15 11:41:42;;;;;;;8.85;4.35;;;33.70;72.70;;;;;;5072191;28;20239;-76
2023/08/15 11:44:10;;;;;;;6.50;4.50;;;33.00;77.10;;;;;;5071989;28;20211;-77
2023/08/15 11:46:39;;;;;;;7.20;4.70;;;32.30;77.20;;;;;;5071916;28;20281;-78
2023/08/15 11:49:22;;;;;;;5.65;4.38;;;31.90;78.60;;;;;;5056960;28;20212;-76
2023/08/15 11:51:51;;;;;;;5.47;4.50;;;31.80;80.90;;;;;;5052119;28;20216;-76
2023/08/15 11:54:27;;;;;;;5.65;4.40;;;32.00;86.10;;;;;;5051573;28;20212;-74
2023/08/15 11:56:55;;;;;;;6.32;4.43;;;32.10;82.30;;;;;;5052312;28;20588;-75
2023/08/15 11:59:24;;;;;;;5.47;4.40;;;32.30;85.20;;;;;;5051903;28;20212;-76
2023/08/15 12:01:52;;;;;;;5.65;4.50;;;32.10;82.00;;;;;;5051368;28;20874;-78
2023/08/15 12:04:20;;;;;;;7.90;4.78;;;32.60;82.20;;;;;;5051319;28;20285;-74
2023/08/15 12:06:51;;;;;;;6.90;4.30;;;33.20;83.80;;;;;;5062619;28;20222;-75
2023/08/15 12:09:28;;;;;;;6.28;4.45;;;33.30;79.60;;;;;;5072529;28;20203;-76
2023/08/15 12:11:59;;;;;;;7.03;4.22;;;33.20;77.00;;;;;;5072857;28;20207;-76
2023/08/15 12:14:28;;;;;;;5.68;3.95;;;32.90;80.50;;;;;;5070140;28;20557;-76
2023/08/15 12:17:16;;;;;;;5.07;4.28;;;32.10;76.80;;;;;;5072865;28;20211;-76
2023/08/15 12:19:44;;;;;;;8.93;4.45;;;31.50;81.50;;;;;;5071502;28;20253;-75
2023/08/15 12:22:12;;;;;;;6.22;4.40;;;31.10;84.00;;;;;;5071876;28;20204;-78
2023/08/15 12:24:42;;;;;;;5.30;4.35;;;30.80;86.10;;;;;;5073745;28;20211;-77
2023/08/15 12:27:10;;;;;;;6.50;4.30;;;30.50;87.30;;;;;;5074388;28;20231;-77
2023/08/15 12:29:38;;;;;;;6.30;4.90;;;30.30;90.00;;;;;;5074273;28;20257;-77
2023/08/15 12:32:27;;;;;;;11.50;5.03;;;30.00;91.70;;;;;;5073893;28;20307;-75
2023/08/15 12:34:55;;;;;;;7.60;5.00;;;30.00;93.60;;;;;;5074085;28;20314;-77
2023/08/15 12:37:23;;;;;;;4.90;4.40;;;29.90;95.00;;;;;;5073754;28;20261;-76
2023/08/15 12:39:53;;;;;;;5.97;4.37;;;29.50;95.30;;;;;;5073844;28;20215;-78
2023/08/15 12:42:22;;;;;;;7.27;4.63;;;29.40;95.90;;;;;;5053923;28;20295;-77
2023/08/15 12:44:50;;;;;;;10.67;3.73;;;29.10;97.50;;;;;;5057508;28;20199;-78
2023/08/15 12:47:19;;;;;;;9.17;2.50;;;28.70;93.90;;;;;;5073213;28;20689;-77
2023/08/15 12:49:48;;;;;;;3.67;2.00;;;27.40;94.60;;;;;;5070108;28;20235;-76
2023/08/15 12:52:16;;;;;;;3.93;2.70;;;26.10;99.90;;;;;;5072932;28;20257;-79
2023/08/15 12:54:45;;;;;;;5.50;3.00;;;25.20;99.90;;;;;;5073056;28;20208;-75
2023/08/15 12:57:14;;;;;;;8.67;3.87;;;24.50;99.90;;;;;;5074816;28;20282;-77